Aviation Digital Data Service (ADDS)

Output produced by METARs form (1128 UTC 19 January 2018)
found at http://www.aviationweather.gov/adds/metars/
 
LHSM 191045Z 02005KT 9999 FEW040 BKN073 06/02 Q1009 RERA NOSIG
LHSM 191015Z 14004KT 9999 FEW020 BKN050 OVC083 06/03 Q1008 RERA NOSIG
LHSM 190945Z 04004KT 9999 -RA FEW013 BKN056 06/02 Q1008 NOSIG
LHSM 190915Z 16004KT CAVOK 05/02 Q1008 NOSIG
LHSM 190845Z 19013KT 9999 FEW030 BKN083 05/01 Q1007 NOSIG
LHSM 190815Z 18009KT 9999 FEW030 OVC083 05/01 Q1007 NOSIG
LHSM 190745Z 17006KT 9999 VCSH FEW025 BKN083 04/00 Q1007 NOSIG
LHSM 190715Z 20009KT CAVOK 04/00 Q1007
LHSM 190645Z 19012KT CAVOK 04/M00 Q1007
LHSM 190615Z 19010KT CAVOK 03/M00 Q1007
LHSM 190545Z 19007KT CAVOK 02/M00 Q1007